createdAt,value
2019-01-17T00:00:02.837Z,-2.2
2019-01-17T00:15:03.029Z,-2.5
2019-01-17T00:30:02.496Z,-2.6
2019-01-17T00:45:03.091Z,-2.5
2019-01-17T01:00:03.254Z,-2.7
2019-01-17T01:15:02.908Z,-2.7
2019-01-17T01:30:03.315Z,-3
2019-01-17T01:45:02.585Z,-2.8
2019-01-17T02:00:02.773Z,-2.9
2019-01-17T02:15:03.236Z,-3.1
2019-01-17T02:30:02.597Z,-3.2
2019-01-17T02:45:02.906Z,-2.9
2019-01-17T03:00:03.233Z,-2.8
2019-01-17T03:15:02.814Z,-2.7
2019-01-17T03:30:03.156Z,-2.8
2019-01-17T03:45:03.424Z,-2.8
2019-01-17T04:00:02.707Z,-2.8
2019-01-17T04:15:02.981Z,-2.6
2019-01-17T04:30:03.380Z,-2.5
2019-01-17T04:45:02.665Z,-1.9
2019-01-17T05:00:02.989Z,-1.8
2019-01-17T05:15:02.927Z,-1.4
2019-01-17T05:30:03.191Z,-1.2
2019-01-17T05:45:02.415Z,-1.6
2019-01-17T06:00:02.748Z,-1.6
2019-01-17T06:15:03.009Z,-1.8
2019-01-17T06:30:02.580Z,-1.9
2019-01-17T06:45:02.906Z,-1.9
2019-01-17T07:00:03.220Z,-2.1
2019-01-17T07:15:02.460Z,-2.1
2019-01-17T07:30:02.821Z,-1.9
2019-01-17T07:45:03.210Z,-1.5
2019-01-17T08:00:02.458Z,-1.1
2019-01-17T08:15:02.812Z,-0.7
2019-01-17T08:30:03.177Z,-0.1
2019-01-17T08:45:02.505Z,0.6
2019-01-17T09:00:02.825Z,1.2
2019-01-17T09:15:03.066Z,2.1
2019-01-17T09:30:03.519Z,2.3
2019-01-17T09:47:59.754Z,2.8
2019-01-17T10:00:03.884Z,3.6
2019-01-17T10:15:02.663Z,4.7
2019-01-17T10:30:03.041Z,5.8
2019-01-17T10:45:03.536Z,5.4
2019-01-17T11:00:02.501Z,5.8
2019-01-17T11:15:02.976Z,5.9
2019-01-17T11:30:02.547Z,6.1
2019-01-17T11:45:02.823Z,6.6
2019-01-17T12:00:03.066Z,6.8
2019-01-17T12:15:02.542Z,6.6
2019-01-17T12:30:02.949Z,6.1
2019-01-17T12:45:03.243Z,6.3
2019-01-17T13:00:07.649Z,6.4
2019-01-17T13:15:03.392Z,6.5
2019-01-17T13:30:02.741Z,6.9
2019-01-17T13:45:02.916Z,7.4
2019-01-17T14:00:03.161Z,7.6
2019-01-17T14:15:03.459Z,7.6
2019-01-17T14:30:03.330Z,7.4
2019-01-17T14:45:03.323Z,7
2019-01-17T15:00:02.557Z,6.8
2019-01-17T15:15:02.658Z,6.6
2019-01-17T15:30:03.442Z,6.3
2019-01-17T15:45:02.422Z,6.1
2019-01-17T16:00:02.631Z,6
2019-01-17T16:15:03.121Z,5.8
2019-01-17T16:30:02.669Z,5.5
2019-01-17T16:45:03.755Z,5.2
2019-01-17T17:00:03.529Z,5.2
2019-01-17T17:15:02.728Z,5.2
2019-01-17T17:30:03.338Z,5.1
2019-01-17T17:45:02.629Z,5
2019-01-17T18:00:02.951Z,4.8
2019-01-17T18:15:03.147Z,4.8
2019-01-17T18:30:02.510Z,4.8
2019-01-17T18:45:02.811Z,4.7
2019-01-17T19:00:03.138Z,4.7
2019-01-17T19:15:03.453Z,4.7
2019-01-17T19:30:03.765Z,4.6
2019-01-17T19:45:03.075Z,4.6
2019-01-17T20:00:03.278Z,4.5
2019-01-17T20:15:02.585Z,4.4
2019-01-17T20:30:03.141Z,4.4
2019-01-17T20:45:03.566Z,4.4
2019-01-17T21:00:02.924Z,4.4
2019-01-17T21:15:03.182Z,4.2
2019-01-17T21:30:02.779Z,4.2
2019-01-17T21:45:02.971Z,4.2
2019-01-17T22:00:03.447Z,4.2
2019-01-17T22:15:02.576Z,4.2
2019-01-17T22:30:02.864Z,3.3
2019-01-17T22:45:03.231Z,2.9
2019-01-17T23:00:02.746Z,2.9
2019-01-17T23:15:03.076Z,2.8
2019-01-17T23:30:03.406Z,2.6
2019-01-17T23:45:02.691Z,2.6
